To NAV CANADA Home Page Login to a new session Search on AWWS site Feedback and Comments Disclaimer Vers la page française équivalente Tips FAQ What's new on the site To the Forecasts and Observations / NOTAM section To "File a Flight Plan" website Publications and other links Update of the User's profile FIC Telephone Numbers My Weather Data Folder Route Weather Data Regional Weather Data Local Weather Data To the Forecasts and Observations / NOTAM section
Request Generated 04/25/2015 at 19:44:29 UTC . Weather information available at that time is displayed.

METAR/TAF

LONDON/ON    

METAR CYXU 251900Z 05009KT 15SM FEW040 BKN240 09/M02 A2984 RMK SC1CI6
SC TR SLP113=
METAR CYXU 251800Z 08008KT 010V100 15SM FEW040 FEW150 BKN240 09/M03
A2988 RMK CU1AC1CI5 CU TR AC TR SLP124=
METAR CYXU 251700Z 04005KT 020V110 15SM FEW040 FEW150 SCT240 07/M04
A2992 RMK CU1AC1CI4 CU TR AC TR SLP139=

TAF CYXU 251738Z 2518/2618 04005KT P6SM FEW040
FM252100 06006KT P6SM SCT060
FM260200 02008KT P6SM FEW040
FM261600 35015KT P6SM BKN050
RMK NXT FCST BY 260000Z=
Your time UTC time
Weather data provided by Environment Canada and NAV CANADA